sensor_id;sensor_type;location;lat;lon;timestamp;pressure;altitude;pressure_sealevel;temperature;humidity
82588;BME280;72268;55.950;-3.724;2023-08-31T00:00:52;98855.18;;;10.43;41.73
82588;BME280;72268;55.950;-3.724;2023-08-31T00:03:17;98853.35;;;10.56;42.12
82588;BME280;72268;55.950;-3.724;2023-08-31T00:05:43;98845.65;;;10.38;42.25
82588;BME280;72268;55.950;-3.724;2023-08-31T00:08:09;98842.16;;;10.48;42.00
82588;BME280;72268;55.950;-3.724;2023-08-31T00:10:34;98843.12;;;10.47;41.98
82588;BME280;72268;55.950;-3.724;2023-08-31T00:12:59;98841.66;;;10.33;42.57
82588;BME280;72268;55.950;-3.724;2023-08-31T00:15:25;98846.92;;;10.19;42.53
82588;BME280;72268;55.950;-3.724;2023-08-31T00:17:50;98847.76;;;10.42;42.11
82588;BME280;72268;55.950;-3.724;2023-08-31T00:20:16;98852.54;;;10.17;42.24
82588;BME280;72268;55.950;-3.724;2023-08-31T00:22:41;98851.73;;;10.25;41.55
82588;BME280;72268;55.950;-3.724;2023-08-31T00:25:08;98849.81;;;10.03;41.58
82588;BME280;72268;55.950;-3.724;2023-08-31T00:27:33;98850.12;;;10.15;41.90
82588;BME280;72268;55.950;-3.724;2023-08-31T00:29:58;98851.39;;;9.86;42.12
82588;BME280;72268;55.950;-3.724;2023-08-31T00:32:24;98853.06;;;9.94;42.43
82588;BME280;72268;55.950;-3.724;2023-08-31T00:34:50;98856.07;;;9.95;42.30
82588;BME280;72268;55.950;-3.724;2023-08-31T00:37:15;98854.00;;;9.93;42.09
82588;BME280;72268;55.950;-3.724;2023-08-31T00:39:41;98849.16;;;10.04;41.90
82588;BME280;72268;55.950;-3.724;2023-08-31T00:42:06;98845.12;;;9.89;42.26
82588;BME280;72268;55.950;-3.724;2023-08-31T00:44:32;98839.76;;;9.81;42.29
82588;BME280;72268;55.950;-3.724;2023-08-31T00:46:57;98838.29;;;9.46;42.59
82588;BME280;72268;55.950;-3.724;2023-08-31T00:49:23;98840.98;;;9.88;41.99
82588;BME280;72268;55.950;-3.724;2023-08-31T00:51:49;98840.68;;;9.71;41.95
82588;BME280;72268;55.950;-3.724;2023-08-31T00:54:14;98841.71;;;9.81;42.16
82588;BME280;72268;55.950;-3.724;2023-08-31T00:56:40;98843.04;;;9.46;41.89
82588;BME280;72268;55.950;-3.724;2023-08-31T00:59:06;98845.05;;;10.02;41.73
82588;BME280;72268;55.950;-3.724;2023-08-31T01:01:36;98846.11;;;9.67;42.10
82588;BME280;72268;55.950;-3.724;2023-08-31T01:04:05;98841.03;;;9.27;42.95
82588;BME280;72268;55.950;-3.724;2023-08-31T01:06:29;98844.89;;;9.74;42.30
82588;BME280;72268;55.950;-3.724;2023-08-31T01:08:56;98846.68;;;9.74;42.65
82588;BME280;72268;55.950;-3.724;2023-08-31T01:11:19;98848.56;;;9.67;41.97
82588;BME280;72268;55.950;-3.724;2023-08-31T01:13:42;98847.00;;;9.83;41.93
82588;BME280;72268;55.950;-3.724;2023-08-31T01:16:07;98840.17;;;9.59;42.88
82588;BME280;72268;55.950;-3.724;2023-08-31T01:18:31;98837.14;;;9.50;43.22
82588;BME280;72268;55.950;-3.724;2023-08-31T01:21:02;98839.52;;;9.41;42.37
82588;BME280;72268;55.950;-3.724;2023-08-31T01:23:26;98841.36;;;9.54;42.12
82588;BME280;72268;55.950;-3.724;2023-08-31T01:25:47;98841.21;;;9.80;41.98
82588;BME280;72268;55.950;-3.724;2023-08-31T01:28:12;98837.58;;;9.65;42.46
82588;BME280;72268;55.950;-3.724;2023-08-31T01:30:38;98834.80;;;9.18;42.78
82588;BME280;72268;55.950;-3.724;2023-08-31T01:35:26;98836.48;;;9.46;42.37
82588;BME280;72268;55.950;-3.724;2023-08-31T01:37:53;98833.15;;;9.25;42.32
82588;BME280;72268;55.950;-3.724;2023-08-31T01:40:18;98831.82;;;9.66;42.61
82588;BME280;72268;55.950;-3.724;2023-08-31T01:42:42;98828.45;;;9.25;42.45
82588;BME280;72268;55.950;-3.724;2023-08-31T01:45:08;98824.91;;;9.50;42.71
82588;BME280;72268;55.950;-3.724;2023-08-31T01:47:33;98820.99;;;9.42;42.47
82588;BME280;72268;55.950;-3.724;2023-08-31T01:49:58;98823.54;;;9.55;42.37
82588;BME280;72268;55.950;-3.724;2023-08-31T01:52:24;98826.66;;;9.29;42.86
82588;BME280;72268;55.950;-3.724;2023-08-31T01:54:49;98824.51;;;9.42;42.47
82588;BME280;72268;55.950;-3.724;2023-08-31T01:57:15;98822.68;;;9.22;43.00
82588;BME280;72268;55.950;-3.724;2023-08-31T01:59:41;98819.45;;;9.04;42.57
82588;BME280;72268;55.950;-3.724;2023-08-31T02:02:06;98814.68;;;9.36;42.58
82588;BME280;72268;55.950;-3.724;2023-08-31T02:04:32;98817.11;;;8.95;42.93
82588;BME280;72268;55.950;-3.724;2023-08-31T02:06:57;98812.41;;;9.20;42.55
82588;BME280;72268;55.950;-3.724;2023-08-31T02:09:23;98818.86;;;8.94;43.07
82588;BME280;72268;55.950;-3.724;2023-08-31T02:11:49;98824.41;;;9.15;43.10
82588;BME280;72268;55.950;-3.724;2023-08-31T02:14:14;98828.33;;;9.07;42.80
82588;BME280;72268;55.950;-3.724;2023-08-31T02:16:40;98829.14;;;9.00;42.32
82588;BME280;72268;55.950;-3.724;2023-08-31T02:19:05;98823.77;;;8.86;42.76
82588;BME280;72268;55.950;-3.724;2023-08-31T02:21:31;98821.89;;;8.64;43.50
82588;BME280;72268;55.950;-3.724;2023-08-31T02:23:57;98826.59;;;8.64;43.90
82588;BME280;72268;55.950;-3.724;2023-08-31T02:26:22;98829.71;;;8.72;42.71
82588;BME280;72268;55.950;-3.724;2023-08-31T02:28:48;98831.14;;;8.95;42.87
82588;BME280;72268;55.950;-3.724;2023-08-31T02:31:16;98828.71;;;8.74;42.79
82588;BME280;72268;55.950;-3.724;2023-08-31T02:33:39;98831.57;;;8.80;42.45
82588;BME280;72268;55.950;-3.724;2023-08-31T02:36:05;98829.36;;;8.64;42.50
82588;BME280;72268;55.950;-3.724;2023-08-31T02:38:30;98826.66;;;8.78;42.79
82588;BME280;72268;55.950;-3.724;2023-08-31T02:40:56;98826.86;;;8.95;42.79
82588;BME280;72268;55.950;-3.724;2023-08-31T02:43:21;98829.04;;;8.97;43.15
82588;BME280;72268;55.950;-3.724;2023-08-31T02:45:47;98826.77;;;8.65;42.56
82588;BME280;72268;55.950;-3.724;2023-08-31T02:48:13;98820.85;;;8.48;42.75
82588;BME280;72268;55.950;-3.724;2023-08-31T02:50:38;98817.99;;;8.52;42.57
82588;BME280;72268;55.950;-3.724;2023-08-31T02:53:04;98817.76;;;8.89;42.43
82588;BME280;72268;55.950;-3.724;2023-08-31T02:55:32;98814.56;;;8.54;42.39
82588;BME280;72268;55.950;-3.724;2023-08-31T02:57:55;98814.84;;;8.32;43.09
82588;BME280;72268;55.950;-3.724;2023-08-31T03:00:21;98813.46;;;8.60;43.10
82588;BME280;72268;55.950;-3.724;2023-08-31T03:02:46;98819.84;;;8.71;42.99
82588;BME280;72268;55.950;-3.724;2023-08-31T03:05:12;98825.09;;;8.59;42.39
82588;BME280;72268;55.950;-3.724;2023-08-31T03:07:37;98830.41;;;8.66;43.04
82588;BME280;72268;55.950;-3.724;2023-08-31T03:10:03;98829.51;;;8.43;43.06
82588;BME280;72268;55.950;-3.724;2023-08-31T03:12:28;98823.37;;;8.32;42.84
82588;BME280;72268;55.950;-3.724;2023-08-31T03:14:54;98819.96;;;8.38;42.67
82588;BME280;72268;55.950;-3.724;2023-08-31T03:17:20;98819.91;;;8.40;43.48
82588;BME280;72268;55.950;-3.724;2023-08-31T03:19:45;98817.59;;;8.30;42.98
82588;BME280;72268;55.950;-3.724;2023-08-31T03:22:11;98816.04;;;8.48;42.72
82588;BME280;72268;55.950;-3.724;2023-08-31T03:24:37;98817.49;;;8.63;42.51
82588;BME280;72268;55.950;-3.724;2023-08-31T03:27:02;98817.56;;;8.05;42.74
82588;BME280;72268;55.950;-3.724;2023-08-31T03:29:28;98819.55;;;8.29;43.66
82588;BME280;72268;55.950;-3.724;2023-08-31T03:31:53;98819.33;;;8.04;43.07
82588;BME280;72268;55.950;-3.724;2023-08-31T03:34:19;98814.46;;;8.35;42.93
82588;BME280;72268;55.950;-3.724;2023-08-31T03:36:45;98816.11;;;8.20;43.35
82588;BME280;72268;55.950;-3.724;2023-08-31T03:39:10;98815.84;;;7.80;43.28
82588;BME280;72268;55.950;-3.724;2023-08-31T03:41:36;98819.34;;;8.10;42.78
82588;BME280;72268;55.950;-3.724;2023-08-31T03:44:01;98818.66;;;8.35;42.71
82588;BME280;72268;55.950;-3.724;2023-08-31T03:46:27;98815.80;;;7.87;43.57
82588;BME280;72268;55.950;-3.724;2023-08-31T03:48:53;98817.32;;;7.69;44.07
82588;BME280;72268;55.950;-3.724;2023-08-31T03:51:18;98817.85;;;7.82;43.41
82588;BME280;72268;55.950;-3.724;2023-08-31T03:53:44;98818.05;;;7.98;43.09
82588;BME280;72268;55.950;-3.724;2023-08-31T03:56:10;98817.90;;;8.00;43.23
82588;BME280;72268;55.950;-3.724;2023-08-31T03:58:35;98817.53;;;8.19;42.68
82588;BME280;72268;55.950;-3.724;2023-08-31T04:01:01;98823.06;;;7.91;42.61
82588;BME280;72268;55.950;-3.724;2023-08-31T04:03:26;98827.21;;;7.96;42.78
82588;BME280;72268;55.950;-3.724;2023-08-31T04:05:56;98824.44;;;7.83;43.14
82588;BME280;72268;55.950;-3.724;2023-08-31T04:08:18;98822.52;;;7.97;43.03
82588;BME280;72268;55.950;-3.724;2023-08-31T04:10:43;98818.88;;;7.94;43.25
82588;BME280;72268;55.950;-3.724;2023-08-31T04:13:09;98820.86;;;7.81;43.69
82588;BME280;72268;55.950;-3.724;2023-08-31T04:15:35;98817.98;;;7.61;43.44
82588;BME280;72268;55.950;-3.724;2023-08-31T04:18:00;98818.73;;;7.55;43.68
82588;BME280;72268;55.950;-3.724;2023-08-31T04:20:26;98817.43;;;8.01;43.16
82588;BME280;72268;55.950;-3.724;2023-08-31T04:22:51;98812.26;;;7.63;42.88
82588;BME280;72268;55.950;-3.724;2023-08-31T04:25:17;98813.79;;;7.28;43.77
82588;BME280;72268;55.950;-3.724;2023-08-31T04:27:43;98814.93;;;7.56;43.52
82588;BME280;72268;55.950;-3.724;2023-08-31T04:30:09;98813.85;;;7.50;43.80
82588;BME280;72268;55.950;-3.724;2023-08-31T04:32:34;98814.98;;;7.53;43.74
82588;BME280;72268;55.950;-3.724;2023-08-31T04:35:00;98815.24;;;7.60;42.76
82588;BME280;72268;55.950;-3.724;2023-08-31T04:37:25;98818.12;;;7.54;42.69
82588;BME280;72268;55.950;-3.724;2023-08-31T04:39:51;98814.52;;;7.72;42.64
82588;BME280;72268;55.950;-3.724;2023-08-31T04:42:16;98817.99;;;7.34;43.30
82588;BME280;72268;55.950;-3.724;2023-08-31T04:44:42;98819.92;;;7.30;43.95
82588;BME280;72268;55.950;-3.724;2023-08-31T04:47:08;98827.03;;;7.11;43.52
82588;BME280;72268;55.950;-3.724;2023-08-31T04:49:33;98828.25;;;7.64;43.45
82588;BME280;72268;55.950;-3.724;2023-08-31T04:51:59;98832.43;;;7.50;42.72
82588;BME280;72268;55.950;-3.724;2023-08-31T04:54:25;98831.67;;;7.41;43.22
82588;BME280;72268;55.950;-3.724;2023-08-31T04:56:50;98835.49;;;7.61;42.85
82588;BME280;72268;55.950;-3.724;2023-08-31T04:59:16;98832.63;;;7.63;43.60
82588;BME280;72268;55.950;-3.724;2023-08-31T05:01:42;98836.92;;;7.21;43.59
82588;BME280;72268;55.950;-3.724;2023-08-31T05:04:07;98840.55;;;7.50;43.47
82588;BME280;72268;55.950;-3.724;2023-08-31T05:06:33;98841.39;;;7.60;43.17
82588;BME280;72268;55.950;-3.724;2023-08-31T05:08:58;98839.22;;;7.43;43.20
82588;BME280;72268;55.950;-3.724;2023-08-31T05:11:24;98839.99;;;7.51;43.29
82588;BME280;72268;55.950;-3.724;2023-08-31T05:13:50;98839.38;;;7.43;43.72
82588;BME280;72268;55.950;-3.724;2023-08-31T05:16:15;98841.44;;;7.40;43.82
82588;BME280;72268;55.950;-3.724;2023-08-31T05:18:41;98841.95;;;7.08;43.34
82588;BME280;72268;55.950;-3.724;2023-08-31T05:21:07;98846.33;;;7.49;43.84
82588;BME280;72268;55.950;-3.724;2023-08-31T05:23:32;98850.31;;;7.34;43.92
82588;BME280;72268;55.950;-3.724;2023-08-31T05:25:58;98848.44;;;7.40;43.83
82588;BME280;72268;55.950;-3.724;2023-08-31T05:28:24;98847.25;;;7.68;43.47
82588;BME280;72268;55.950;-3.724;2023-08-31T05:30:50;98853.27;;;7.27;43.85
82588;BME280;72268;55.950;-3.724;2023-08-31T05:33:15;98856.11;;;7.71;43.77
82588;BME280;72268;55.950;-3.724;2023-08-31T05:35:40;98853.54;;;7.86;43.72
82588;BME280;72268;55.950;-3.724;2023-08-31T05:38:06;98849.41;;;7.74;43.85
82588;BME280;72268;55.950;-3.724;2023-08-31T05:40:32;98850.13;;;7.42;44.06
82588;BME280;72268;55.950;-3.724;2023-08-31T05:42:57;98852.71;;;7.78;44.12
82588;BME280;72268;55.950;-3.724;2023-08-31T05:45:23;98853.42;;;7.69;44.23
82588;BME280;72268;55.950;-3.724;2023-08-31T05:47:49;98849.76;;;7.65;43.78
82588;BME280;72268;55.950;-3.724;2023-08-31T05:50:14;98846.79;;;7.54;44.09
82588;BME280;72268;55.950;-3.724;2023-08-31T05:52:40;98844.94;;;7.53;45.08
82588;BME280;72268;55.950;-3.724;2023-08-31T05:55:06;98848.10;;;7.66;44.51
82588;BME280;72268;55.950;-3.724;2023-08-31T05:57:31;98851.80;;;7.74;43.85
82588;BME280;72268;55.950;-3.724;2023-08-31T05:59:57;98853.87;;;7.95;43.47
82588;BME280;72268;55.950;-3.724;2023-08-31T06:02:22;98858.02;;;8.10;43.73
82588;BME280;72268;55.950;-3.724;2023-08-31T06:04:48;98860.80;;;8.03;43.97
82588;BME280;72268;55.950;-3.724;2023-08-31T06:07:14;98856.46;;;8.14;43.96
82588;BME280;72268;55.950;-3.724;2023-08-31T06:09:39;98858.95;;;8.20;43.93
82588;BME280;72268;55.950;-3.724;2023-08-31T06:12:06;98857.91;;;8.37;43.78
82588;BME280;72268;55.950;-3.724;2023-08-31T06:14:30;98860.38;;;8.19;43.82
82588;BME280;72268;55.950;-3.724;2023-08-31T06:16:56;98861.25;;;8.89;43.81
82588;BME280;72268;55.950;-3.724;2023-08-31T06:19:22;98862.58;;;8.35;43.60
82588;BME280;72268;55.950;-3.724;2023-08-31T06:21:47;98863.14;;;8.95;44.00
82588;BME280;72268;55.950;-3.724;2023-08-31T06:24:13;98869.46;;;8.49;44.07
82588;BME280;72268;55.950;-3.724;2023-08-31T06:26:38;98871.74;;;8.66;43.56
82588;BME280;72268;55.950;-3.724;2023-08-31T06:29:04;98871.98;;;8.75;43.38
82588;BME280;72268;55.950;-3.724;2023-08-31T06:31:30;98872.32;;;9.06;43.03
82588;BME280;72268;55.950;-3.724;2023-08-31T06:33:55;98873.54;;;9.22;42.98
82588;BME280;72268;55.950;-3.724;2023-08-31T06:36:23;98874.66;;;9.45;42.49
82588;BME280;72268;55.950;-3.724;2023-08-31T06:38:46;98874.71;;;9.59;42.41
82588;BME280;72268;55.950;-3.724;2023-08-31T06:41:12;98876.01;;;9.27;42.38
82588;BME280;72268;55.950;-3.724;2023-08-31T06:43:38;98875.52;;;9.42;42.14
82588;BME280;72268;55.950;-3.724;2023-08-31T06:46:03;98876.12;;;9.79;42.10
82588;BME280;72268;55.950;-3.724;2023-08-31T06:48:29;98877.52;;;9.81;42.11
82588;BME280;72268;55.950;-3.724;2023-08-31T06:50:54;98880.56;;;9.97;42.12
82588;BME280;72268;55.950;-3.724;2023-08-31T06:53:20;98884.21;;;9.99;42.08
82588;BME280;72268;55.950;-3.724;2023-08-31T06:55:45;98882.95;;;10.11;42.03
82588;BME280;72268;55.950;-3.724;2023-08-31T06:58:11;98887.93;;;9.87;42.26
82588;BME280;72268;55.950;-3.724;2023-08-31T07:00:37;98887.58;;;9.97;41.97
82588;BME280;72268;55.950;-3.724;2023-08-31T07:03:03;98890.87;;;10.06;42.11
82588;BME280;72268;55.950;-3.724;2023-08-31T07:05:28;98887.55;;;10.25;41.88
82588;BME280;72268;55.950;-3.724;2023-08-31T07:07:54;98887.34;;;10.38;42.22
82588;BME280;72268;55.950;-3.724;2023-08-31T07:10:19;98885.46;;;10.45;41.75
82588;BME280;72268;55.950;-3.724;2023-08-31T07:12:44;98880.84;;;10.52;42.03
82588;BME280;72268;55.950;-3.724;2023-08-31T07:15:10;98883.56;;;10.76;42.38
82588;BME280;72268;55.950;-3.724;2023-08-31T07:17:36;98885.88;;;10.77;41.91
82588;BME280;72268;55.950;-3.724;2023-08-31T07:20:01;98882.43;;;10.85;41.82
82588;BME280;72268;55.950;-3.724;2023-08-31T07:22:27;98884.03;;;10.64;41.98
82588;BME280;72268;55.950;-3.724;2023-08-31T07:24:52;98883.37;;;10.98;42.09
82588;BME280;72268;55.950;-3.724;2023-08-31T07:27:18;98882.77;;;10.79;42.56
82588;BME280;72268;55.950;-3.724;2023-08-31T07:29:43;98883.17;;;10.87;41.99
82588;BME280;72268;55.950;-3.724;2023-08-31T07:32:09;98884.94;;;10.65;42.45
82588;BME280;72268;55.950;-3.724;2023-08-31T07:34:34;98885.24;;;11.15;42.23
82588;BME280;72268;55.950;-3.724;2023-08-31T07:37:00;98883.46;;;11.23;41.96
82588;BME280;72268;55.950;-3.724;2023-08-31T07:39:26;98883.19;;;11.38;42.14
82588;BME280;72268;55.950;-3.724;2023-08-31T07:41:53;98882.62;;;11.14;42.94
82588;BME280;72268;55.950;-3.724;2023-08-31T07:44:17;98881.73;;;11.43;42.34
82588;BME280;72268;55.950;-3.724;2023-08-31T07:46:42;98881.17;;;11.39;42.05
82588;BME280;72268;55.950;-3.724;2023-08-31T07:49:08;98881.98;;;11.53;41.75
82588;BME280;72268;55.950;-3.724;2023-08-31T07:51:33;98883.58;;;11.57;42.33
82588;BME280;72268;55.950;-3.724;2023-08-31T07:54:00;98884.18;;;11.83;41.88
82588;BME280;72268;55.950;-3.724;2023-08-31T07:56:24;98882.04;;;11.68;42.03
82588;BME280;72268;55.950;-3.724;2023-08-31T07:58:50;98876.10;;;11.82;42.04
82588;BME280;72268;55.950;-3.724;2023-08-31T08:01:16;98876.62;;;12.16;41.82
82588;BME280;72268;55.950;-3.724;2023-08-31T08:03:41;98878.09;;;12.15;41.86
82588;BME280;72268;55.950;-3.724;2023-08-31T08:06:07;98878.79;;;12.49;42.06
82588;BME280;72268;55.950;-3.724;2023-08-31T08:08:32;98878.55;;;12.23;41.71
82588;BME280;72268;55.950;-3.724;2023-08-31T08:10:58;98876.03;;;12.51;41.23
82588;BME280;72268;55.950;-3.724;2023-08-31T08:13:23;98881.17;;;12.81;40.72
82588;BME280;72268;55.950;-3.724;2023-08-31T08:15:49;98880.83;;;12.99;40.99
82588;BME280;72268;55.950;-3.724;2023-08-31T08:18:14;98882.50;;;13.15;41.12
82588;BME280;72268;55.950;-3.724;2023-08-31T08:20:40;98885.26;;;13.40;40.95
82588;BME280;72268;55.950;-3.724;2023-08-31T08:23:06;98885.57;;;13.04;41.68
82588;BME280;72268;55.950;-3.724;2023-08-31T08:25:31;98884.46;;;13.52;41.31
82588;BME280;72268;55.950;-3.724;2023-08-31T08:27:56;98887.92;;;13.55;41.39
82588;BME280;72268;55.950;-3.724;2023-08-31T08:30:22;98885.80;;;13.81;41.13
82588;BME280;72268;55.950;-3.724;2023-08-31T08:32:47;98883.45;;;13.44;41.54
82588;BME280;72268;55.950;-3.724;2023-08-31T08:35:13;98885.74;;;13.88;41.51
82588;BME280;72268;55.950;-3.724;2023-08-31T08:37:38;98888.50;;;13.82;41.51
82588;BME280;72268;55.950;-3.724;2023-08-31T08:40:05;98886.96;;;13.88;41.62
82588;BME280;72268;55.950;-3.724;2023-08-31T08:42:30;98881.52;;;14.32;41.00
82588;BME280;72268;55.950;-3.724;2023-08-31T08:44:56;98883.53;;;14.56;41.17
82588;BME280;72268;55.950;-3.724;2023-08-31T08:47:20;98879.42;;;14.38;41.65
82588;BME280;72268;55.950;-3.724;2023-08-31T08:49:47;98880.29;;;14.63;40.73
82588;BME280;72268;55.950;-3.724;2023-08-31T08:52:11;98882.97;;;14.59;41.26
82588;BME280;72268;55.950;-3.724;2023-08-31T08:54:37;98884.22;;;14.64;41.65
82588;BME280;72268;55.950;-3.724;2023-08-31T08:57:02;98886.03;;;14.98;41.07
82588;BME280;72268;55.950;-3.724;2023-08-31T08:59:27;98890.29;;;15.20;42.00
82588;BME280;72268;55.950;-3.724;2023-08-31T09:01:53;98892.34;;;14.85;42.76
82588;BME280;72268;55.950;-3.724;2023-08-31T09:04:18;98892.41;;;15.29;41.62
82588;BME280;72268;55.950;-3.724;2023-08-31T09:06:43;98897.63;;;15.34;41.67
82588;BME280;72268;55.950;-3.724;2023-08-31T09:09:09;98893.58;;;15.75;41.55
82588;BME280;72268;55.950;-3.724;2023-08-31T09:11:35;98891.98;;;16.00;40.51
82588;BME280;72268;55.950;-3.724;2023-08-31T09:13:59;98893.25;;;15.49;41.44
82588;BME280;72268;55.950;-3.724;2023-08-31T09:16:25;98891.99;;;15.05;42.71
82588;BME280;72268;55.950;-3.724;2023-08-31T09:18:50;98888.96;;;15.63;41.84
82588;BME280;72268;55.950;-3.724;2023-08-31T09:21:15;98892.27;;;15.78;42.24
82588;BME280;72268;55.950;-3.724;2023-08-31T09:23:41;98893.23;;;15.80;41.98
82588;BME280;72268;55.950;-3.724;2023-08-31T09:26:07;98892.33;;;15.75;42.84
82588;BME280;72268;55.950;-3.724;2023-08-31T09:28:32;98890.98;;;16.07;42.71
82588;BME280;72268;55.950;-3.724;2023-08-31T09:31:05;98887.46;;;16.00;42.57
82588;BME280;72268;55.950;-3.724;2023-08-31T09:33:23;98886.19;;;16.20;42.41
82588;BME280;72268;55.950;-3.724;2023-08-31T09:35:50;98885.82;;;16.33;43.16
82588;BME280;72268;55.950;-3.724;2023-08-31T09:38:14;98884.01;;;16.36;42.45
82588;BME280;72268;55.950;-3.724;2023-08-31T09:40:39;98883.87;;;16.42;42.21
82588;BME280;72268;55.950;-3.724;2023-08-31T09:43:05;98890.21;;;17.03;41.18
82588;BME280;72268;55.950;-3.724;2023-08-31T09:45:31;98887.67;;;17.19;41.10
82588;BME280;72268;55.950;-3.724;2023-08-31T09:47:56;98884.85;;;17.72;40.06
82588;BME280;72268;55.950;-3.724;2023-08-31T09:50:23;98879.05;;;17.25;41.50
82588;BME280;72268;55.950;-3.724;2023-08-31T09:52:47;98879.86;;;17.62;41.38
82588;BME280;72268;55.950;-3.724;2023-08-31T09:55:13;98881.21;;;18.11;39.79
82588;BME280;72268;55.950;-3.724;2023-08-31T09:57:38;98878.50;;;17.83;40.89
82588;BME280;72268;55.950;-3.724;2023-08-31T10:00:04;98877.73;;;18.24;40.05
82588;BME280;72268;55.950;-3.724;2023-08-31T10:02:29;98874.91;;;18.35;40.25
82588;BME280;72268;55.950;-3.724;2023-08-31T10:04:54;98869.08;;;18.43;39.54
82588;BME280;72268;55.950;-3.724;2023-08-31T10:07:20;98868.02;;;18.74;39.58
82588;BME280;72268;55.950;-3.724;2023-08-31T10:09:44;98866.88;;;19.10;39.14
82588;BME280;72268;55.950;-3.724;2023-08-31T10:12:10;98867.71;;;19.38;38.93
82588;BME280;72268;55.950;-3.724;2023-08-31T10:14:35;98865.36;;;19.32;38.86
82588;BME280;72268;55.950;-3.724;2023-08-31T10:17:01;98860.58;;;19.22;38.92
82588;BME280;72268;55.950;-3.724;2023-08-31T10:19:25;98855.87;;;19.69;38.36
82588;BME280;72268;55.950;-3.724;2023-08-31T10:21:51;98859.27;;;20.59;37.40
82588;BME280;72268;55.950;-3.724;2023-08-31T10:24:17;98856.73;;;19.84;37.77
82588;BME280;72268;55.950;-3.724;2023-08-31T10:26:42;98853.98;;;20.41;37.00
82588;BME280;72268;55.950;-3.724;2023-08-31T10:31:33;98849.65;;;20.20;37.41
82588;BME280;72268;55.950;-3.724;2023-08-31T10:33:59;98847.35;;;20.06;37.92
82588;BME280;72268;55.950;-3.724;2023-08-31T10:36:34;98844.40;;;20.89;37.10
82588;BME280;72268;55.950;-3.724;2023-08-31T10:41:19;98839.09;;;21.08;36.48
82588;BME280;72268;55.950;-3.724;2023-08-31T10:43:44;98838.36;;;21.31;36.59
82588;BME280;72268;55.950;-3.724;2023-08-31T10:48:29;98837.67;;;21.29;36.60
82588;BME280;72268;55.950;-3.724;2023-08-31T10:50:59;98838.30;;;21.11;36.73
82588;BME280;72268;55.950;-3.724;2023-08-31T10:53:27;98839.72;;;21.50;36.10
82588;BME280;72268;55.950;-3.724;2023-08-31T10:55:50;98839.21;;;21.66;35.94
82588;BME280;72268;55.950;-3.724;2023-08-31T10:58:10;98836.60;;;21.89;35.34
82588;BME280;72268;55.950;-3.724;2023-08-31T11:00:46;98836.66;;;22.05;35.35
82588;BME280;72268;55.950;-3.724;2023-08-31T11:03:03;98836.51;;;21.91;36.10
82588;BME280;72268;55.950;-3.724;2023-08-31T11:05:26;98833.12;;;21.73;35.84
82588;BME280;72268;55.950;-3.724;2023-08-31T11:07:51;98833.93;;;21.41;36.60
82588;BME280;72268;55.950;-3.724;2023-08-31T11:10:17;98832.23;;;21.44;36.21
82588;BME280;72268;55.950;-3.724;2023-08-31T11:12:43;98829.63;;;21.50;36.50
82588;BME280;72268;55.950;-3.724;2023-08-31T11:15:08;98829.14;;;21.91;35.98
82588;BME280;72268;55.950;-3.724;2023-08-31T11:17:33;98827.05;;;22.21;35.70
82588;BME280;72268;55.950;-3.724;2023-08-31T11:19:57;98828.40;;;21.89;36.01
82588;BME280;72268;55.950;-3.724;2023-08-31T11:22:23;98828.09;;;21.48;36.44
82588;BME280;72268;55.950;-3.724;2023-08-31T11:24:48;98828.10;;;21.56;35.88
82588;BME280;72268;55.950;-3.724;2023-08-31T11:27:14;98833.49;;;21.41;36.39
82588;BME280;72268;55.950;-3.724;2023-08-31T11:29:43;98832.23;;;21.75;36.68
82588;BME280;72268;55.950;-3.724;2023-08-31T11:32:05;98829.81;;;22.01;35.69
82588;BME280;72268;55.950;-3.724;2023-08-31T11:34:30;98827.86;;;21.54;36.16
82588;BME280;72268;55.950;-3.724;2023-08-31T11:36:55;98829.14;;;21.60;36.07
82588;BME280;72268;55.950;-3.724;2023-08-31T11:39:21;98833.16;;;21.66;35.75
82588;BME280;72268;55.950;-3.724;2023-08-31T11:41:46;98834.20;;;21.56;36.19
82588;BME280;72268;55.950;-3.724;2023-08-31T11:44:12;98836.20;;;21.47;36.17
82588;BME280;72268;55.950;-3.724;2023-08-31T11:46:37;98838.48;;;21.53;36.40
82588;BME280;72268;55.950;-3.724;2023-08-31T11:49:02;98840.89;;;21.71;36.30
82588;BME280;72268;55.950;-3.724;2023-08-31T11:51:27;98838.60;;;22.27;35.11
82588;BME280;72268;55.950;-3.724;2023-08-31T11:53:52;98835.73;;;22.59;35.21
82588;BME280;72268;55.950;-3.724;2023-08-31T11:56:18;98836.90;;;22.44;34.99
82588;BME280;72268;55.950;-3.724;2023-08-31T11:58:43;98832.26;;;22.71;34.68
82588;BME280;72268;55.950;-3.724;2023-08-31T12:01:08;98833.09;;;22.65;34.61
82588;BME280;72268;55.950;-3.724;2023-08-31T12:03:41;98832.62;;;23.19;34.41
82588;BME280;72268;55.950;-3.724;2023-08-31T12:05:59;98832.82;;;22.84;33.99
82588;BME280;72268;55.950;-3.724;2023-08-31T12:08:25;98829.86;;;22.44;34.56
82588;BME280;72268;55.950;-3.724;2023-08-31T12:10:50;98826.07;;;22.31;34.92
82588;BME280;72268;55.950;-3.724;2023-08-31T12:13:15;98824.06;;;22.13;35.43
82588;BME280;72268;55.950;-3.724;2023-08-31T12:15:41;98822.30;;;22.78;34.39
82588;BME280;72268;55.950;-3.724;2023-08-31T12:18:08;98821.03;;;23.10;33.86
82588;BME280;72268;55.950;-3.724;2023-08-31T12:20:31;98821.95;;;23.11;33.87
82588;BME280;72268;55.950;-3.724;2023-08-31T12:22:56;98813.44;;;22.85;33.60
82588;BME280;72268;55.950;-3.724;2023-08-31T12:25:22;98815.91;;;22.75;34.47
82588;BME280;72268;55.950;-3.724;2023-08-31T12:27:47;98817.26;;;22.82;34.31
82588;BME280;72268;55.950;-3.724;2023-08-31T12:30:13;98816.69;;;23.10;34.22
82588;BME280;72268;55.950;-3.724;2023-08-31T12:32:38;98814.93;;;23.04;34.09
82588;BME280;72268;55.950;-3.724;2023-08-31T12:35:04;98815.92;;;23.12;34.17
82588;BME280;72268;55.950;-3.724;2023-08-31T12:37:28;98814.57;;;23.13;33.76
82588;BME280;72268;55.950;-3.724;2023-08-31T12:39:54;98819.35;;;22.79;33.92
82588;BME280;72268;55.950;-3.724;2023-08-31T12:42:19;98822.13;;;23.16;33.62
82588;BME280;72268;55.950;-3.724;2023-08-31T12:44:44;98823.46;;;23.14;33.89
82588;BME280;72268;55.950;-3.724;2023-08-31T12:47:10;98822.03;;;23.00;34.34
82588;BME280;72268;55.950;-3.724;2023-08-31T12:49:35;98822.09;;;22.82;34.20
82588;BME280;72268;55.950;-3.724;2023-08-31T12:52:00;98818.73;;;23.12;33.89
82588;BME280;72268;55.950;-3.724;2023-08-31T12:54:26;98818.31;;;22.87;33.54